createdAt,value
2022-10-14T00:00:33.704Z,12.79
2022-10-14T00:03:00.476Z,12.77
2022-10-14T00:05:27.104Z,12.76
2022-10-14T00:07:53.708Z,12.74
2022-10-14T00:10:20.239Z,12.75
2022-10-14T00:12:47.413Z,12.74
2022-10-14T00:15:13.976Z,12.75
2022-10-14T00:17:40.449Z,12.77
2022-10-14T00:20:07.555Z,12.78
2022-10-14T00:22:34.228Z,12.79
2022-10-14T00:25:00.739Z,12.82
2022-10-14T00:27:28.037Z,12.84
2022-10-14T00:29:54.816Z,12.86
2022-10-14T00:32:21.293Z,12.89
2022-10-14T00:34:50.763Z,12.91
2022-10-14T00:37:17.246Z,12.94
2022-10-14T00:39:43.883Z,12.95
2022-10-14T00:42:18.368Z,12.97
2022-10-14T00:44:46.469Z,13.00
2022-10-14T00:47:13.187Z,13.01
2022-10-14T00:49:43.485Z,13.03
2022-10-14T00:52:22.275Z,13.05
2022-10-14T00:55:00.325Z,13.07
2022-10-14T00:57:28.453Z,13.08
2022-10-14T01:00:02.216Z,13.09
2022-10-14T01:02:29.790Z,13.12
2022-10-14T01:04:56.743Z,13.15
2022-10-14T01:07:29.071Z,13.15
2022-10-14T01:10:08.134Z,13.17
2022-10-14T01:12:44.168Z,13.20
2022-10-14T01:15:32.232Z,13.21
2022-10-14T01:18:07.461Z,13.24
2022-10-14T01:20:47.304Z,13.26
2022-10-14T01:23:44.151Z,13.28
2022-10-14T01:26:25.964Z,13.28
2022-10-14T01:29:11.516Z,13.29
2022-10-14T01:31:45.547Z,13.30
2022-10-14T01:34:17.498Z,13.31
2022-10-14T01:37:01.277Z,13.34
2022-10-14T01:39:34.367Z,13.35
2022-10-14T01:42:10.150Z,13.34
2022-10-14T01:44:42.407Z,13.34
2022-10-14T01:47:10.984Z,13.35
2022-10-14T01:49:56.044Z,13.37
2022-10-14T01:52:31.330Z,13.36
2022-10-14T01:55:02.786Z,13.32
2022-10-14T01:57:33.854Z,13.32
2022-10-14T02:00:02.267Z,13.33
2022-10-14T02:02:41.264Z,13.33
2022-10-14T02:05:28.661Z,13.34
2022-10-14T02:08:11.908Z,13.37
2022-10-14T02:11:02.398Z,13.36
2022-10-14T02:13:56.467Z,13.38
2022-10-14T02:16:44.167Z,13.38
2022-10-14T02:19:38.028Z,13.38
2022-10-14T02:22:13.428Z,13.38
2022-10-14T02:24:44.646Z,13.38
2022-10-14T02:27:14.837Z,13.40
2022-10-14T02:29:45.482Z,13.40
2022-10-14T02:32:15.120Z,13.40
2022-10-14T02:34:46.837Z,13.40
2022-10-14T02:37:16.935Z,13.39
2022-10-14T02:39:54.680Z,13.40
2022-10-14T02:42:24.741Z,13.41
2022-10-14T02:44:56.951Z,13.43
2022-10-14T02:47:24.363Z,13.45
2022-10-14T02:49:51.932Z,13.47
2022-10-14T02:52:19.045Z,13.47
2022-10-14T02:54:45.890Z,13.50
2022-10-14T02:57:12.671Z,13.52
2022-10-14T02:59:39.712Z,13.54
2022-10-14T03:02:07.552Z,13.57
2022-10-14T03:04:35.980Z,13.59
2022-10-14T03:07:02.748Z,13.60
2022-10-14T03:09:32.628Z,13.62
2022-10-14T03:11:59.660Z,13.63
2022-10-14T03:14:26.396Z,13.64
2022-10-14T03:16:54.062Z,13.66
2022-10-14T03:19:23.538Z,13.66
2022-10-14T03:21:53.381Z,13.65
2022-10-14T03:24:20.821Z,13.64
2022-10-14T03:26:55.750Z,13.64
2022-10-14T03:29:25.357Z,13.66
2022-10-14T03:32:01.437Z,13.66
2022-10-14T03:34:44.739Z,13.66
2022-10-14T03:37:15.785Z,13.67
2022-10-14T03:39:48.584Z,13.67
2022-10-14T03:42:16.542Z,13.67
2022-10-14T03:44:46.662Z,13.67
2022-10-14T03:47:26.622Z,13.68
2022-10-14T03:49:53.378Z,13.69
2022-10-14T03:52:32.148Z,13.71
2022-10-14T03:55:05.002Z,13.73
2022-10-14T03:57:32.194Z,13.73
2022-10-14T04:00:00.241Z,13.71
2022-10-14T04:02:40.360Z,13.73
2022-10-14T04:05:11.344Z,13.73
2022-10-14T04:07:38.937Z,13.74
2022-10-14T04:10:08.567Z,13.74
2022-10-14T04:12:37.100Z,13.75
2022-10-14T04:15:08.977Z,13.77
2022-10-14T04:17:53.351Z,13.78
2022-10-14T04:20:20.076Z,13.79
2022-10-14T04:22:49.945Z,13.80
2022-10-14T04:25:17.903Z,13.81
2022-10-14T04:27:50.010Z,13.83
2022-10-14T04:30:16.997Z,13.83
2022-10-14T04:32:51.319Z,13.83
2022-10-14T04:35:18.434Z,13.85
2022-10-14T04:37:49.203Z,13.86
2022-10-14T04:40:25.581Z,13.86
2022-10-14T04:42:59.599Z,13.89
2022-10-14T04:45:32.078Z,13.90
2022-10-14T04:48:01.582Z,13.90
2022-10-14T04:50:28.222Z,13.90
2022-10-14T04:53:14.140Z,13.91
2022-10-14T04:56:01.501Z,13.91
2022-10-14T04:58:28.158Z,13.92
2022-10-14T05:00:55.502Z,13.92
2022-10-14T05:03:29.719Z,13.92
2022-10-14T05:05:57.227Z,13.92
2022-10-14T05:08:23.863Z,13.92
2022-10-14T05:10:53.684Z,13.92
2022-10-14T05:13:34.793Z,13.92
2022-10-14T05:16:06.693Z,13.93
2022-10-14T05:18:33.741Z,13.92
2022-10-14T05:21:04.691Z,13.92
2022-10-14T05:23:43.803Z,13.92
2022-10-14T05:26:10.969Z,13.92
2022-10-14T05:28:39.551Z,13.92
2022-10-14T05:31:07.358Z,13.91
2022-10-14T05:33:39.962Z,13.90
2022-10-14T05:36:07.005Z,13.89
2022-10-14T05:38:34.461Z,13.89
2022-10-14T05:41:02.484Z,13.90
2022-10-14T05:43:32.369Z,13.91
2022-10-14T05:46:00.843Z,13.90
2022-10-14T05:48:29.755Z,13.90
2022-10-14T05:51:01.564Z,13.92
2022-10-14T05:53:29.905Z,13.94
2022-10-14T05:56:07.439Z,13.95
2022-10-14T05:58:36.492Z,13.98
2022-10-14T06:01:06.116Z,13.97
2022-10-14T06:03:33.438Z,13.98
2022-10-14T06:06:00.478Z,14.02
2022-10-14T06:08:29.769Z,14.05
2022-10-14T06:10:56.466Z,14.09
2022-10-14T06:13:23.386Z,14.14
2022-10-14T06:15:51.055Z,14.17
2022-10-14T06:18:17.788Z,14.20
2022-10-14T06:20:44.418Z,14.23
2022-10-14T06:23:11.013Z,14.25
2022-10-14T06:25:37.679Z,14.27
2022-10-14T06:28:05.503Z,14.27
2022-10-14T06:30:33.070Z,14.25
2022-10-14T06:32:59.564Z,14.23
2022-10-14T06:35:26.316Z,14.22
2022-10-14T06:37:52.947Z,14.22
2022-10-14T06:40:19.477Z,14.21
2022-10-14T06:42:46.223Z,14.20
2022-10-14T06:45:12.861Z,14.21
2022-10-14T06:47:39.634Z,14.24
2022-10-14T06:50:06.653Z,14.28
2022-10-14T06:52:33.252Z,14.30
2022-10-14T06:54:59.751Z,14.29
2022-10-14T06:57:26.340Z,14.31
2022-10-14T06:59:52.855Z,14.32
2022-10-14T07:02:19.868Z,14.28
2022-10-14T07:04:46.696Z,14.24
2022-10-14T07:07:13.183Z,14.27
2022-10-14T07:09:39.779Z,14.33
2022-10-14T07:12:06.270Z,14.44
2022-10-14T07:14:32.776Z,14.53
2022-10-14T07:17:00.549Z,14.62
2022-10-14T07:19:27.087Z,14.69
2022-10-14T07:21:53.650Z,14.75
2022-10-14T07:24:20.314Z,14.79
2022-10-14T07:26:46.817Z,14.80
2022-10-14T07:29:13.295Z,14.83
2022-10-14T07:31:39.834Z,14.87
2022-10-14T07:34:06.384Z,14.90
2022-10-14T07:36:32.914Z,14.92
2022-10-14T07:38:59.490Z,14.92
2022-10-14T07:41:26.575Z,14.95
2022-10-14T07:43:57.300Z,14.97
2022-10-14T07:46:34.654Z,15.00
2022-10-14T07:49:22.266Z,15.04
2022-10-14T07:51:49.912Z,15.06
2022-10-14T07:54:22.895Z,15.10
2022-10-14T07:56:50.510Z,15.19
2022-10-14T07:59:21.040Z,15.29
2022-10-14T08:01:49.117Z,15.29
2022-10-14T08:04:16.576Z,15.34
2022-10-14T08:06:43.185Z,15.38
2022-10-14T08:09:11.475Z,15.36
2022-10-14T08:11:38.936Z,15.32
2022-10-14T08:14:06.206Z,15.32
2022-10-14T08:16:35.033Z,15.35
2022-10-14T08:19:13.535Z,15.37
2022-10-14T08:21:42.614Z,15.37
2022-10-14T08:24:09.955Z,15.34
2022-10-14T08:26:48.122Z,15.33
2022-10-14T08:29:14.700Z,15.34
2022-10-14T08:31:41.219Z,15.43
2022-10-14T08:34:07.766Z,15.51
2022-10-14T08:36:34.396Z,15.63
2022-10-14T08:39:00.977Z,15.72
2022-10-14T08:41:36.724Z,15.91
2022-10-14T08:44:09.412Z,16.04
2022-10-14T08:46:51.195Z,16.14
2022-10-14T08:49:25.135Z,16.22
2022-10-14T08:52:10.917Z,16.24
2022-10-14T08:54:43.351Z,16.28
2022-10-14T08:57:16.634Z,16.37
2022-10-14T08:59:43.255Z,16.49
2022-10-14T09:02:35.000Z,16.65
2022-10-14T09:05:02.260Z,16.80
2022-10-14T09:07:31.139Z,16.91
2022-10-14T09:10:14.271Z,16.96
2022-10-14T09:12:42.880Z,17.00
2022-10-14T09:15:22.486Z,16.99
2022-10-14T09:17:56.641Z,17.02
2022-10-14T09:20:24.931Z,17.12
2022-10-14T09:23:05.331Z,17.23
2022-10-14T09:25:35.972Z,17.32
2022-10-14T09:28:02.819Z,17.43
2022-10-14T09:30:35.688Z,17.47
2022-10-14T09:33:03.694Z,17.54
2022-10-14T09:35:34.523Z,17.58
2022-10-14T09:38:01.111Z,17.63
2022-10-14T09:40:33.577Z,17.70
2022-10-14T09:43:15.624Z,17.72
2022-10-14T09:46:01.885Z,17.80
2022-10-14T09:48:44.342Z,17.88
2022-10-14T09:51:20.547Z,17.90
2022-10-14T09:53:54.933Z,17.93
2022-10-14T09:56:38.953Z,17.93
2022-10-14T09:59:21.101Z,17.96
2022-10-14T10:01:56.132Z,18.10
2022-10-14T10:04:34.087Z,18.18
2022-10-14T10:07:09.995Z,18.26
2022-10-14T10:09:36.521Z,18.22
2022-10-14T10:12:35.807Z,18.25
2022-10-14T10:15:06.170Z,18.22
2022-10-14T10:17:40.532Z,18.15
2022-10-14T10:20:18.343Z,18.04
2022-10-14T10:22:45.566Z,18.04
2022-10-14T10:25:19.123Z,18.02
2022-10-14T10:27:47.898Z,17.93
2022-10-14T10:30:14.324Z,17.93
2022-10-14T10:32:44.909Z,17.99
2022-10-14T10:35:26.173Z,18.11
2022-10-14T10:38:02.117Z,18.15
2022-10-14T10:40:36.634Z,18.13
2022-10-14T10:43:25.147Z,18.08
2022-10-14T10:46:20.415Z,18.13
2022-10-14T10:48:55.036Z,18.12
2022-10-14T10:51:31.007Z,18.08
2022-10-14T10:54:14.688Z,18.07
2022-10-14T10:56:56.032Z,18.20
2022-10-14T10:59:33.248Z,18.30
2022-10-14T11:02:35.480Z,18.36
2022-10-14T11:05:39.959Z,18.47
2022-10-14T11:08:38.919Z,18.63
2022-10-14T11:11:40.109Z,18.68
2022-10-14T11:14:39.102Z,18.63
2022-10-14T11:17:24.159Z,18.60
2022-10-14T11:20:05.387Z,18.38
2022-10-14T11:22:57.967Z,18.14
2022-10-14T11:25:50.267Z,17.96
2022-10-14T11:28:36.110Z,17.87
2022-10-14T11:31:10.189Z,17.91
2022-10-14T11:33:46.809Z,17.92
2022-10-14T11:36:25.152Z,17.88
2022-10-14T11:39:03.705Z,17.78
2022-10-14T11:41:47.062Z,17.84
2022-10-14T11:44:36.607Z,17.96
2022-10-14T11:47:20.604Z,18.06
2022-10-14T11:49:51.038Z,18.27
2022-10-14T11:52:24.697Z,18.37
2022-10-14T11:54:55.655Z,18.63
2022-10-14T11:57:35.111Z,18.86
2022-10-14T12:00:39.562Z,19.03
2022-10-14T12:03:29.235Z,18.98
2022-10-14T12:06:02.133Z,18.91
2022-10-14T12:08:35.853Z,18.91
2022-10-14T12:11:17.651Z,18.95
2022-10-14T12:13:48.109Z,18.91
2022-10-14T12:16:17.849Z,18.76
2022-10-14T12:18:46.981Z,18.68
2022-10-14T12:21:31.343Z,18.63
2022-10-14T12:24:17.209Z,18.55
2022-10-14T12:26:54.735Z,18.56
2022-10-14T12:29:44.668Z,18.69
2022-10-14T12:32:20.751Z,18.80
2022-10-14T12:35:03.709Z,18.88
2022-10-14T12:37:35.453Z,18.96
2022-10-14T12:40:02.564Z,18.95
2022-10-14T12:43:01.605Z,19.02
2022-10-14T12:45:30.436Z,19.06
2022-10-14T12:48:22.642Z,19.12
2022-10-14T12:50:55.138Z,19.17
2022-10-14T12:53:29.455Z,19.24
2022-10-14T12:55:59.430Z,19.43
2022-10-14T12:58:25.978Z,19.61
2022-10-14T13:00:55.958Z,19.66
2022-10-14T13:03:27.382Z,19.74
2022-10-14T13:06:27.721Z,19.86
2022-10-14T13:09:12.318Z,19.97
2022-10-14T13:11:43.677Z,19.90
2022-10-14T13:14:31.195Z,19.63
2022-10-14T13:16:59.850Z,19.52
2022-10-14T13:19:32.432Z,19.42
2022-10-14T13:22:03.709Z,19.37
2022-10-14T13:24:38.205Z,19.38
2022-10-14T13:27:30.167Z,19.39
2022-10-14T13:30:23.608Z,19.35
2022-10-14T13:32:58.065Z,19.29
2022-10-14T13:35:32.349Z,19.24
2022-10-14T13:38:03.893Z,19.18
2022-10-14T13:40:36.974Z,19.06
2022-10-14T13:43:15.991Z,18.92
2022-10-14T13:45:46.609Z,18.84
2022-10-14T13:48:17.016Z,18.82
2022-10-14T13:50:46.958Z,18.81
2022-10-14T13:53:22.946Z,18.77
2022-10-14T13:55:54.424Z,18.74
2022-10-14T13:58:23.051Z,18.74
2022-10-14T14:00:57.299Z,18.77
2022-10-14T14:03:34.521Z,18.81
2022-10-14T14:06:01.693Z,18.86
2022-10-14T14:08:42.234Z,18.89
2022-10-14T14:11:20.521Z,18.88
2022-10-14T14:13:58.928Z,18.83
2022-10-14T14:16:56.485Z,18.84
2022-10-14T14:19:27.556Z,18.80
2022-10-14T14:22:15.840Z,18.76
2022-10-14T14:24:42.498Z,18.75
2022-10-14T14:27:18.007Z,18.73
2022-10-14T14:29:48.086Z,18.71
2022-10-14T14:32:20.681Z,18.70
2022-10-14T14:34:50.264Z,18.70
2022-10-14T14:37:48.113Z,18.67
2022-10-14T14:40:18.480Z,18.61
2022-10-14T14:42:47.942Z,18.59
2022-10-14T14:45:20.928Z,18.55
2022-10-14T14:47:52.682Z,18.53
2022-10-14T14:50:30.351Z,18.49
2022-10-14T14:53:02.997Z,18.45
2022-10-14T14:55:44.394Z,18.40
2022-10-14T14:58:20.170Z,18.38
2022-10-14T15:00:47.355Z,18.33
2022-10-14T15:03:13.968Z,18.30
2022-10-14T15:05:40.698Z,18.28
2022-10-14T15:08:23.800Z,18.27
2022-10-14T15:10:52.696Z,18.23
2022-10-14T15:13:49.945Z,18.17
2022-10-14T15:16:42.160Z,18.12
2022-10-14T15:19:25.684Z,18.11
2022-10-14T15:22:19.449Z,18.05
2022-10-14T15:24:56.820Z,18.03
2022-10-14T15:27:33.047Z,18.02
2022-10-14T15:30:37.413Z,18.04
2022-10-14T15:33:15.938Z,18.03
2022-10-14T15:35:44.399Z,18.01
2022-10-14T15:38:16.166Z,17.98
2022-10-14T15:40:43.784Z,17.96
2022-10-14T15:43:17.797Z,17.94
2022-10-14T15:46:08.448Z,17.90
2022-10-14T15:48:39.521Z,17.87
2022-10-14T15:51:06.256Z,17.85
2022-10-14T15:53:33.436Z,17.80
2022-10-14T15:56:00.372Z,17.79
2022-10-14T15:58:26.924Z,17.73
2022-10-14T16:00:53.750Z,17.70
2022-10-14T16:03:20.428Z,17.67
2022-10-14T16:05:47.525Z,17.64
2022-10-14T16:08:15.052Z,17.62
2022-10-14T16:10:45.720Z,17.57
2022-10-14T16:13:12.918Z,17.55
2022-10-14T16:16:03.966Z,17.51
2022-10-14T16:18:33.659Z,17.50
2022-10-14T16:21:00.264Z,17.47
2022-10-14T16:23:33.319Z,17.43
2022-10-14T16:26:00.352Z,17.42
2022-10-14T16:28:26.927Z,17.39
2022-10-14T16:30:53.624Z,17.38
2022-10-14T16:33:24.261Z,17.34
2022-10-14T16:35:53.437Z,17.30
2022-10-14T16:38:20.444Z,17.27
2022-10-14T16:40:57.870Z,17.25
2022-10-14T16:43:25.717Z,17.24
2022-10-14T16:45:52.828Z,17.22
2022-10-14T16:48:19.441Z,17.20
2022-10-14T16:50:51.038Z,17.18
2022-10-14T16:53:36.560Z,17.18
2022-10-14T16:56:04.225Z,17.16
2022-10-14T16:58:30.741Z,17.16
2022-10-14T17:00:57.439Z,17.14
2022-10-14T17:03:24.314Z,17.13
2022-10-14T17:05:57.812Z,17.12
2022-10-14T17:08:24.403Z,17.10
2022-10-14T17:10:58.724Z,17.09
2022-10-14T17:13:25.358Z,17.09
2022-10-14T17:16:00.122Z,17.07
2022-10-14T17:18:29.014Z,17.05
2022-10-14T17:21:16.760Z,17.04
2022-10-14T17:23:44.098Z,17.04
2022-10-14T17:26:13.545Z,17.04
2022-10-14T17:28:41.961Z,17.03
2022-10-14T17:31:10.995Z,17.02
2022-10-14T17:33:38.600Z,17.00
2022-10-14T17:36:08.726Z,16.98
2022-10-14T17:38:36.035Z,16.97
2022-10-14T17:41:04.905Z,16.96
2022-10-14T17:43:36.823Z,16.94
2022-10-14T17:46:05.570Z,16.92
2022-10-14T17:48:35.346Z,16.91
2022-10-14T17:51:02.383Z,16.88
2022-10-14T17:53:29.569Z,16.84
2022-10-14T17:55:58.786Z,16.83
2022-10-14T17:58:25.925Z,16.81
2022-10-14T18:00:52.456Z,16.77
2022-10-14T18:03:19.144Z,16.75
2022-10-14T18:05:48.763Z,16.73
2022-10-14T18:08:16.394Z,16.73
2022-10-14T18:10:43.155Z,16.74
2022-10-14T18:13:09.861Z,16.72
2022-10-14T18:15:36.664Z,16.74
2022-10-14T18:18:03.471Z,16.72
2022-10-14T18:20:31.923Z,16.74
2022-10-14T18:23:02.673Z,16.73
2022-10-14T18:25:29.241Z,16.70
2022-10-14T18:27:55.827Z,16.69
2022-10-14T18:30:22.852Z,16.67
2022-10-14T18:32:49.690Z,16.67
2022-10-14T18:35:16.231Z,16.66
2022-10-14T18:37:42.765Z,16.67
2022-10-14T18:40:09.941Z,16.65
2022-10-14T18:42:36.579Z,16.67
2022-10-14T18:45:03.210Z,16.65
2022-10-14T18:47:29.874Z,16.63
2022-10-14T18:49:59.644Z,16.63
2022-10-14T18:52:26.424Z,16.61
2022-10-14T18:54:53.244Z,16.60
2022-10-14T18:57:21.027Z,16.59
2022-10-14T18:59:50.211Z,16.59
2022-10-14T19:02:17.840Z,16.59
2022-10-14T19:04:44.535Z,16.59
2022-10-14T19:07:11.116Z,16.58
2022-10-14T19:09:37.715Z,16.59
2022-10-14T19:12:25.111Z,16.58
2022-10-14T19:14:52.030Z,16.57
2022-10-14T19:17:18.770Z,16.55
2022-10-14T19:19:45.368Z,16.54
2022-10-14T19:22:12.017Z,16.54
2022-10-14T19:24:38.686Z,16.53
2022-10-14T19:27:05.664Z,16.51
2022-10-14T19:29:32.190Z,16.49
2022-10-14T19:31:59.097Z,16.48
2022-10-14T19:34:27.364Z,16.46
2022-10-14T19:36:54.084Z,16.43
2022-10-14T19:39:20.936Z,16.41
2022-10-14T19:41:47.681Z,16.40
2022-10-14T19:44:15.870Z,16.37
2022-10-14T19:46:43.584Z,16.35
2022-10-14T19:49:13.346Z,16.34
2022-10-14T19:51:40.919Z,16.32
2022-10-14T19:54:07.553Z,16.31
2022-10-14T19:56:34.145Z,16.29
2022-10-14T19:59:02.013Z,16.28
2022-10-14T20:01:30.120Z,16.27
2022-10-14T20:03:58.966Z,16.26
2022-10-14T20:06:25.597Z,16.25
2022-10-14T20:08:52.191Z,16.24
2022-10-14T20:11:19.838Z,16.24
2022-10-14T20:13:46.801Z,16.23
2022-10-14T20:16:13.800Z,16.19
2022-10-14T20:18:41.101Z,16.19
2022-10-14T20:21:12.606Z,16.17
2022-10-14T20:23:39.773Z,16.14
2022-10-14T20:26:12.603Z,16.10
2022-10-14T20:28:40.097Z,16.06
2022-10-14T20:31:09.403Z,16.03
2022-10-14T20:33:36.485Z,16.00
2022-10-14T20:36:18.896Z,15.98
2022-10-14T20:38:45.839Z,15.96
2022-10-14T20:41:15.250Z,15.95
2022-10-14T20:43:42.883Z,15.94
2022-10-14T20:46:09.939Z,15.91
2022-10-14T20:48:39.050Z,15.88
2022-10-14T20:51:12.170Z,15.86
2022-10-14T20:56:08.667Z,15.84
2022-10-14T20:58:36.083Z,15.80
2022-10-14T21:01:10.186Z,15.78
2022-10-14T21:03:37.530Z,15.80
2022-10-14T21:06:06.543Z,15.78
2022-10-14T21:08:33.545Z,15.76
2022-10-14T21:11:09.197Z,15.73
2022-10-14T21:13:39.840Z,15.70
2022-10-14T21:16:13.952Z,15.70
2022-10-14T21:18:40.589Z,15.67
2022-10-14T21:21:07.533Z,15.66
2022-10-14T21:23:34.821Z,15.67
2022-10-14T21:26:01.372Z,15.66
2022-10-14T21:28:28.256Z,15.69
2022-10-14T21:30:54.829Z,15.66
2022-10-14T21:33:21.374Z,15.67
2022-10-14T21:35:47.846Z,15.67
2022-10-14T21:38:14.536Z,15.67
2022-10-14T21:40:41.136Z,15.64
2022-10-14T21:43:07.811Z,15.65
2022-10-14T21:45:34.396Z,15.64
2022-10-14T21:48:01.047Z,15.63
2022-10-14T21:50:27.570Z,15.62
2022-10-14T21:52:54.236Z,15.61
2022-10-14T21:55:20.729Z,15.61
2022-10-14T21:57:47.511Z,15.59
2022-10-14T22:00:14.206Z,15.57
2022-10-14T22:02:40.771Z,15.58
2022-10-14T22:05:07.643Z,15.57
2022-10-14T22:07:34.250Z,15.56
2022-10-14T22:10:00.745Z,15.55
2022-10-14T22:12:28.698Z,15.55
2022-10-14T22:14:55.381Z,15.55
2022-10-14T22:17:22.247Z,15.54
2022-10-14T22:19:49.021Z,15.54
2022-10-14T22:22:15.805Z,15.54
2022-10-14T22:24:43.104Z,15.53
2022-10-14T22:27:09.701Z,15.53
2022-10-14T22:29:36.242Z,15.54
2022-10-14T22:32:02.790Z,15.53
2022-10-14T22:34:29.283Z,15.52
2022-10-14T22:36:55.967Z,15.55
2022-10-14T22:39:22.524Z,15.54
2022-10-14T22:41:49.087Z,15.54
2022-10-14T22:44:15.608Z,15.54
2022-10-14T22:46:42.208Z,15.53
2022-10-14T22:49:08.719Z,15.52
2022-10-14T22:51:40.437Z,15.52
2022-10-14T22:54:07.720Z,15.51
2022-10-14T22:56:34.294Z,15.47
2022-10-14T22:59:06.992Z,15.44
2022-10-14T23:01:34.509Z,15.43
2022-10-14T23:04:01.782Z,15.38
2022-10-14T23:06:29.776Z,15.34
2022-10-14T23:08:57.270Z,15.31
2022-10-14T23:11:25.053Z,15.31
2022-10-14T23:13:52.661Z,15.28
2022-10-14T23:16:21.668Z,15.27
2022-10-14T23:18:49.614Z,15.26
2022-10-14T23:21:24.300Z,15.25
2022-10-14T23:23:52.504Z,15.24
2022-10-14T23:26:23.674Z,15.22
2022-10-14T23:28:52.746Z,15.24
2022-10-14T23:31:22.317Z,15.22
2022-10-14T23:33:52.411Z,15.21
2022-10-14T23:36:20.647Z,15.18
2022-10-14T23:38:48.077Z,15.14
2022-10-14T23:41:15.009Z,15.10
2022-10-14T23:43:41.870Z,15.06
2022-10-14T23:46:08.933Z,15.00
2022-10-14T23:48:36.138Z,14.96
2022-10-14T23:51:03.555Z,14.92
2022-10-14T23:53:30.240Z,14.89
2022-10-14T23:55:57.101Z,14.85
2022-10-14T23:58:25.052Z,14.84
